createdAt,value
2023-02-24T11:27:42.791Z,57.49
2023-02-24T11:30:38.377Z,57.55
2023-02-24T11:33:17.484Z,58.00
2023-02-24T11:36:06.730Z,57.60
2023-02-24T11:39:17.782Z,57.26
2023-02-24T11:41:53.220Z,57.95
2023-02-24T11:44:39.294Z,57.53
2023-02-24T11:47:13.232Z,58.13
2023-02-24T11:49:45.509Z,57.76
2023-02-24T11:52:29.657Z,57.70
2023-02-24T11:54:59.849Z,58.23
2023-02-24T11:57:37.748Z,58.07
2023-02-24T12:00:20.182Z,57.58
2023-02-24T12:03:13.035Z,57.72
2023-02-24T12:05:52.826Z,58.18
2023-02-24T12:08:41.875Z,57.65
2023-02-24T12:11:20.630Z,57.56
2023-02-24T12:14:28.830Z,57.53
2023-02-24T12:17:19.830Z,57.61
2023-02-24T12:19:51.792Z,58.13
2023-02-24T12:22:18.498Z,58.24
2023-02-24T12:24:51.642Z,58.00
2023-02-24T12:27:33.360Z,58.14
2023-02-24T12:30:23.037Z,58.68
2023-02-24T12:33:19.434Z,58.30
2023-02-24T12:36:05.022Z,58.49
2023-02-24T12:38:48.794Z,57.93
2023-02-24T12:41:37.332Z,58.10
2023-02-24T12:44:25.079Z,58.59
2023-02-24T12:47:15.583Z,58.57
2023-02-24T12:50:10.044Z,58.40
2023-02-24T12:52:42.430Z,58.56
2023-02-24T12:55:13.807Z,58.11
2023-02-24T12:58:09.263Z,57.99
2023-02-24T13:00:40.852Z,58.42
2023-02-24T13:03:22.393Z,58.09
2023-02-24T13:05:55.960Z,58.26
2023-02-24T13:08:42.340Z,58.28
2023-02-24T13:11:30.343Z,58.13
2023-02-24T13:14:19.634Z,58.60
2023-02-24T13:16:46.290Z,58.34
2023-02-24T13:19:29.794Z,57.90
2023-02-24T13:22:01.677Z,58.43
2023-02-24T13:24:28.558Z,58.44
2023-02-24T13:27:17.651Z,58.43
2023-02-24T13:29:57.522Z,58.49
2023-02-24T13:32:34.308Z,58.74
2023-02-24T13:35:02.445Z,58.82
2023-02-24T13:37:34.507Z,59.02
2023-02-24T13:40:12.290Z,59.11
2023-02-24T13:42:38.864Z,58.77
2023-02-24T13:45:13.260Z,58.97
2023-02-24T13:47:43.009Z,58.93
2023-02-24T13:50:20.834Z,59.05
2023-02-24T13:53:11.234Z,58.64
2023-02-24T13:55:54.730Z,58.96
2023-02-24T13:58:46.448Z,59.12
2023-02-24T14:01:15.855Z,58.96
2023-02-24T14:03:47.188Z,59.36
2023-02-24T14:06:23.542Z,58.97
2023-02-24T14:08:56.513Z,59.40
2023-02-24T14:11:27.060Z,59.06
2023-02-24T14:13:55.838Z,59.41
2023-02-24T14:16:31.390Z,59.33
2023-02-24T14:19:01.852Z,59.36
2023-02-24T14:21:33.705Z,59.20
2023-02-24T14:24:10.792Z,59.04
2023-02-24T14:26:53.093Z,58.94
2023-02-24T14:29:38.381Z,59.40
2023-02-24T14:32:20.618Z,59.30
2023-02-24T14:34:48.099Z,59.09
2023-02-24T14:37:17.704Z,59.22
2023-02-24T14:39:58.602Z,58.87
2023-02-24T14:42:26.585Z,59.26
2023-02-24T14:44:56.029Z,59.79
2023-02-24T14:47:25.133Z,59.22
2023-02-24T14:49:59.375Z,59.27
2023-02-24T14:52:45.715Z,59.67
2023-02-24T14:55:27.625Z,59.75
2023-02-24T14:58:18.129Z,59.39
2023-02-24T15:00:50.263Z,59.42
2023-02-24T15:03:25.231Z,59.48
2023-02-24T15:05:58.171Z,59.63
2023-02-24T15:08:35.439Z,59.42
2023-02-24T15:11:10.314Z,59.50
2023-02-24T15:13:41.968Z,59.52
2023-02-24T15:16:21.894Z,58.93
2023-02-24T15:18:54.276Z,59.38
2023-02-24T15:21:30.399Z,58.87
2023-02-24T15:24:18.826Z,59.00
2023-02-24T15:26:59.428Z,59.06
2023-02-24T15:29:28.560Z,59.08
2023-02-24T15:31:57.514Z,59.10
2023-02-24T15:34:31.089Z,59.07
2023-02-24T15:37:03.237Z,59.45
2023-02-24T15:39:31.575Z,59.66
2023-02-24T15:42:16.937Z,59.43
2023-02-24T15:44:55.484Z,59.36
2023-02-24T15:47:25.353Z,59.51
2023-02-24T15:49:52.330Z,59.73
2023-02-24T15:52:29.698Z,59.66
2023-02-24T15:54:58.101Z,58.82
2023-02-24T15:57:25.634Z,59.57
2023-02-24T17:28:01.302Z,59.08
2023-02-24T17:30:31.043Z,59.32
2023-02-24T17:32:57.779Z,59.46
2023-02-24T17:35:24.624Z,59.65
2023-02-24T17:37:51.173Z,58.42
2023-02-24T17:40:18.036Z,59.63
2023-02-24T17:42:44.818Z,59.92
2023-02-24T17:45:13.256Z,58.30
2023-02-24T17:47:40.662Z,59.57
2023-02-24T17:50:10.145Z,59.98
2023-02-24T17:52:37.331Z,59.89
2023-02-24T17:55:05.700Z,60.10
2023-02-24T17:57:34.209Z,59.96
2023-02-24T18:00:00.957Z,60.13
2023-02-24T18:02:27.514Z,58.82
2023-02-24T18:04:54.570Z,59.95
2023-02-24T18:07:21.331Z,59.69
2023-02-24T18:09:47.827Z,58.71
2023-02-24T18:12:14.468Z,60.10
2023-02-24T18:14:41.080Z,59.85
2023-02-24T18:17:07.668Z,60.22
2023-02-24T18:19:34.309Z,60.00
2023-02-24T18:22:00.871Z,60.52
2023-02-24T18:24:27.461Z,60.32
2023-02-24T18:26:54.064Z,60.12
2023-02-24T18:29:20.843Z,59.93
2023-02-24T18:31:47.597Z,59.13
2023-02-24T18:34:14.330Z,60.14
2023-02-24T18:36:41.042Z,59.99
2023-02-24T18:39:09.124Z,59.97
2023-02-24T18:41:35.652Z,60.37
2023-02-24T18:44:02.253Z,60.14
2023-02-24T18:46:28.953Z,60.11
2023-02-24T18:48:56.082Z,60.50
2023-02-24T18:51:26.263Z,60.57
2023-02-24T18:53:53.780Z,60.69
2023-02-24T18:56:23.657Z,60.87
2023-02-24T18:58:52.769Z,60.70
2023-02-24T19:01:29.528Z,60.38
2023-02-24T19:03:57.413Z,60.50
2023-02-24T19:06:27.041Z,60.43
2023-02-24T19:09:02.799Z,60.33
2023-02-24T19:11:29.968Z,60.85
2023-02-24T19:13:56.553Z,60.80
2023-02-24T19:16:23.692Z,60.55
2023-02-24T19:18:52.402Z,60.87
2023-02-24T19:21:19.301Z,60.68
2023-02-24T19:23:46.562Z,60.82
2023-02-24T19:26:18.292Z,60.67
2023-02-24T19:28:45.103Z,60.80
2023-02-24T19:31:12.478Z,59.19
2023-02-24T19:33:39.058Z,60.52
2023-02-24T19:36:05.959Z,60.70
2023-02-24T19:38:32.409Z,59.43
2023-02-24T19:40:59.630Z,60.61
2023-02-24T19:43:26.440Z,60.65
2023-02-24T19:45:52.925Z,59.47
2023-02-24T19:48:19.521Z,59.98
2023-02-24T19:50:46.376Z,60.20
2023-02-24T19:53:13.017Z,59.13
2023-02-24T19:55:39.630Z,59.76
2023-02-24T19:58:06.177Z,59.25
2023-02-24T20:00:32.748Z,59.22
2023-02-24T20:02:59.327Z,59.59
2023-02-24T20:05:25.851Z,59.48
2023-02-24T20:07:52.428Z,59.76
2023-02-24T20:10:19.161Z,59.64
2023-02-24T20:12:45.714Z,59.49
2023-02-24T20:15:12.554Z,59.73
2023-02-24T20:17:39.190Z,58.85
2023-02-24T20:20:06.523Z,59.74
2023-02-24T20:22:33.137Z,59.89
2023-02-24T20:24:59.840Z,59.77
2023-02-24T20:27:26.477Z,59.83
2023-02-24T20:29:56.242Z,59.51
2023-02-24T20:32:23.516Z,59.62
2023-02-24T20:34:50.619Z,59.75
2023-02-24T20:37:17.362Z,59.79
2023-02-24T20:39:43.882Z,58.62
2023-02-24T20:42:12.215Z,59.39
2023-02-24T20:44:38.762Z,59.30
2023-02-24T20:47:05.557Z,59.04
2023-02-24T20:49:33.090Z,58.33
2023-02-24T20:51:59.668Z,58.70
2023-02-24T20:54:26.625Z,59.03
2023-02-24T20:56:53.102Z,58.39
2023-02-24T20:59:22.289Z,58.96
2023-02-24T21:01:49.952Z,58.88
2023-02-24T21:04:19.885Z,58.95
2023-02-24T21:06:48.156Z,58.99
2023-02-24T21:09:15.626Z,58.85
2023-02-24T21:11:42.245Z,58.63
2023-02-24T21:14:14.044Z,58.78
2023-02-24T21:16:40.552Z,58.53
2023-02-24T21:19:07.072Z,58.15
2023-02-24T21:21:33.632Z,58.41
2023-02-24T21:24:00.213Z,58.14
2023-02-24T21:26:29.250Z,58.49
2023-02-24T21:28:57.808Z,58.34
2023-02-24T21:31:25.396Z,58.16
2023-02-24T21:33:52.705Z,57.90
2023-02-24T21:36:23.602Z,58.17
2023-02-24T21:38:50.377Z,57.66
2023-02-24T21:41:19.558Z,57.30
2023-02-24T21:43:46.874Z,57.65
2023-02-24T21:46:15.520Z,57.54
2023-02-24T21:48:43.114Z,57.23
2023-02-24T21:51:12.778Z,57.49
2023-02-24T21:53:41.127Z,57.27
2023-02-24T21:56:11.167Z,57.36
2023-02-24T21:58:39.551Z,56.98
2023-02-24T22:01:18.276Z,57.20
2023-02-24T22:03:45.534Z,57.20
2023-02-24T22:06:14.254Z,57.17
2023-02-24T22:08:43.413Z,57.46
2023-02-24T22:11:12.186Z,57.18
2023-02-24T22:13:39.911Z,57.15
2023-02-24T22:16:12.929Z,57.11
2023-02-24T22:18:40.236Z,57.30
2023-02-24T22:21:19.094Z,57.11
2023-02-24T22:23:48.245Z,57.14
2023-02-24T22:26:16.935Z,57.13
2023-02-24T22:28:44.893Z,57.38
2023-02-24T22:31:13.733Z,57.90
2023-02-24T22:33:42.068Z,57.70
2023-02-24T22:36:11.944Z,57.41
2023-02-24T22:38:39.360Z,57.84
2023-02-24T22:41:12.101Z,57.75
2023-02-24T22:43:38.961Z,57.40
2023-02-24T22:46:08.466Z,57.80
2023-02-24T22:48:36.302Z,57.89
2023-02-24T22:51:05.430Z,57.82
2023-02-24T22:53:37.639Z,57.70
2023-02-24T22:56:04.310Z,57.47
2023-02-24T22:58:32.348Z,57.53
2023-02-24T23:00:59.879Z,57.80
2023-02-24T23:03:31.096Z,57.82
2023-02-24T23:06:03.792Z,57.63
2023-02-24T23:08:32.253Z,57.43
2023-02-24T23:11:08.981Z,57.93
2023-02-24T23:13:35.601Z,57.73
2023-02-24T23:16:03.615Z,57.58
2023-02-24T23:18:31.346Z,57.52
2023-02-24T23:21:03.361Z,57.79
2023-02-24T23:23:31.615Z,57.56
2023-02-24T23:25:58.773Z,57.66
2023-02-24T23:28:26.584Z,57.51
2023-02-24T23:30:54.050Z,57.73
2023-02-24T23:33:21.367Z,57.54
2023-02-24T23:35:48.056Z,57.56
2023-02-24T23:38:15.214Z,57.27
2023-02-24T23:40:50.041Z,57.28
2023-02-24T23:43:17.250Z,57.54
2023-02-24T23:45:43.768Z,57.27
2023-02-24T23:48:13.654Z,56.99
2023-02-24T23:50:41.465Z,57.26
2023-02-24T23:53:09.877Z,57.51
2023-02-24T23:55:39.038Z,57.79
2023-02-24T23:58:05.650Z,57.34
